Time;durP1;ratioP1;P1;durP2;ratioP2;P2;SDS_P1;SDS_P2;PMS_P1;PMS_P2;Temp;Humidity;BMP_temperature;BMP_pressure;BME280_temperature;BME280_humidity;BME280_pressure;Samples;Min_cycle;Max_cycle;Signal;HPM_P1;HPM_P2
2023/07/01 00:01:11;;;;;;;7.17;3.43;;;;;;;;;;5031582;28;21229;-73
2023/07/01 00:03:37;;;;;;;5.30;3.10;;;;;;;;;;5034073;28;20537;-74
2023/07/01 00:06:04;;;;;;;5.10;3.37;;;;;;;;;;5030743;28;20513;-73
2023/07/01 00:08:31;;;;;;;4.80;3.00;;;;;;;;;;5038751;28;20562;-74
2023/07/01 00:11:00;;;;;;;3.13;2.80;;;;;;;;;;5038732;28;20489;-74
2023/07/01 00:13:27;;;;;;;6.63;2.90;;;;;;;;;;5043210;28;20462;-74
2023/07/01 00:15:54;;;;;;;5.20;2.80;;;;;;;;;;5040569;28;20469;-75
2023/07/01 00:18:20;;;;;;;4.77;3.30;;;;;;;;;;5039647;28;20565;-74
2023/07/01 00:20:47;;;;;;;5.60;2.90;;;;;;;;;;5040377;28;20489;-74
2023/07/01 00:23:13;;;;;;;5.07;3.60;;;;;;;;;;5041220;28;20525;-74
2023/07/01 00:25:41;;;;;;;6.00;3.50;;;;;;;;;;5042359;28;20488;-75
2023/07/01 00:28:07;;;;;;;7.50;3.43;;;;;;;;;;5040033;28;20532;-74
2023/07/01 00:30:33;;;;;;;4.50;3.60;;;;;;;;;;5041481;28;20488;-74
2023/07/01 00:33:00;;;;;;;3.53;3.23;;;;;;;;;;5039042;28;20488;-75
2023/07/01 00:35:27;;;;;;;4.50;3.20;;;;;;;;;;5037977;28;20488;-75
2023/07/01 00:37:53;;;;;;;11.20;4.30;;;;;;;;;;5043909;28;20461;-76
2023/07/01 00:40:20;;;;;;;8.77;3.33;;;;;;;;;;5043111;28;20541;-75
2023/07/01 00:42:47;;;;;;;7.53;3.20;;;;;;;;;;5043345;28;20515;-75
2023/07/01 00:45:14;;;;;;;45.50;5.80;;;;;;;;;;5043922;28;20486;-75
2023/07/01 00:47:40;;;;;;;4.10;3.00;;;;;;;;;;5038663;28;20486;-75
2023/07/01 00:50:08;;;;;;;7.13;3.40;;;;;;;;;;5042059;28;20453;-75
2023/07/01 00:52:34;;;;;;;7.97;3.77;;;;;;;;;;5043048;28;20551;-75
2023/07/01 00:55:01;;;;;;;6.07;3.60;;;;;;;;;;5042595;28;21264;-74
2023/07/01 00:57:27;;;;;;;3.50;2.80;;;;;;;;;;5042378;28;20528;-74
2023/07/01 00:59:55;;;;;;;4.47;3.43;;;;;;;;;;5037625;28;20509;-74
2023/07/01 01:02:22;;;;;;;4.57;3.20;;;;;;;;;;5041750;28;20572;-74
2023/07/01 01:05:01;;;;;;;5.63;2.83;;;;;;;;;;5040375;28;20481;-74
2023/07/01 01:07:30;;;;;;;3.63;3.10;;;;;;;;;;5033145;28;20514;-74
2023/07/01 01:09:58;;;;;;;4.33;3.03;;;;;;;;;;5033436;28;20484;-76
2023/07/01 01:12:25;;;;;;;4.87;2.93;;;;;;;;;;5036596;28;20522;-75
2023/07/01 01:14:52;;;;;;;3.60;2.93;;;;;;;;;;5037719;28;20445;-76
2023/07/01 01:17:21;;;;;;;6.67;3.50;;;;;;;;;;5039032;28;21021;-76
2023/07/01 01:19:51;;;;;;;3.50;3.20;;;;;;;;;;5032985;28;20485;-76
2023/07/01 01:22:22;;;;;;;3.30;2.97;;;;;;;;;;5035242;28;20527;-75
2023/07/01 01:24:51;;;;;;;5.47;3.43;;;;;;;;;;5039026;28;20465;-76
2023/07/01 01:27:20;;;;;;;3.50;3.13;;;;;;;;;;5041473;28;20457;-75
2023/07/01 01:29:48;;;;;;;4.00;2.93;;;;;;;;;;5032084;28;21869;-75
2023/07/01 01:32:14;;;;;;;5.10;3.33;;;;;;;;;;5037433;28;20548;-75
2023/07/01 01:34:41;;;;;;;4.70;2.90;;;;;;;;;;5042071;28;20523;-76
2023/07/01 01:37:12;;;;;;;4.30;3.40;;;;;;;;;;5038957;28;20470;-77
2023/07/01 01:39:42;;;;;;;5.13;3.13;;;;;;;;;;5035128;28;21003;-75
2023/07/01 01:42:13;;;;;;;4.43;2.57;;;;;;;;;;5039919;28;20553;-76
2023/07/01 01:44:45;;;;;;;4.93;2.80;;;;;;;;;;5042613;28;20544;-76
2023/07/01 01:47:13;;;;;;;4.77;3.10;;;;;;;;;;5038283;28;20507;-75
2023/07/01 01:49:40;;;;;;;3.00;2.73;;;;;;;;;;5039192;28;20481;-75
2023/07/01 01:52:07;;;;;;;3.93;3.03;;;;;;;;;;5039281;28;20441;-76
2023/07/01 01:54:33;;;;;;;4.50;2.90;;;;;;;;;;5036504;28;20527;-74
2023/07/01 01:57:00;;;;;;;4.43;3.10;;;;;;;;;;5039396;28;20489;-74
2023/07/01 01:59:26;;;;;;;2.80;2.50;;;;;;;;;;5040680;28;20500;-74
2023/07/01 02:01:53;;;;;;;3.53;2.90;;;;;;;;;;5033960;28;20533;-75
2023/07/01 02:04:21;;;;;;;3.40;2.70;;;;;;;;;;5035825;28;20485;-75
2023/07/01 02:06:47;;;;;;;4.03;2.80;;;;;;;;;;5036361;28;20526;-76
2023/07/01 02:09:13;;;;;;;5.03;3.13;;;;;;;;;;5039901;28;20482;-75
2023/07/01 02:11:40;;;;;;;3.40;3.07;;;;;;;;;;5038923;28;20542;-76
2023/07/01 02:14:06;;;;;;;5.00;2.80;;;;;;;;;;5040782;28;20526;-75
2023/07/01 02:16:33;;;;;;;3.13;2.83;;;;;;;;;;5040811;28;20604;-76
2023/07/01 02:18:59;;;;;;;4.17;2.73;;;;;;;;;;5037407;28;20544;-75
2023/07/01 02:21:27;;;;;;;6.57;3.37;;;;;;;;;;5041724;28;20477;-75
2023/07/01 02:23:53;;;;;;;6.00;3.57;;;;;;;;;;5026920;28;20541;-75
2023/07/01 02:26:20;;;;;;;2.97;2.70;;;;;;;;;;5041583;28;20493;-76
2023/07/01 02:28:46;;;;;;;6.63;2.97;;;;;;;;;;5041732;28;20470;-75
2023/07/01 02:31:16;;;;;;;5.03;3.00;;;;;;;;;;5034906;28;20492;-75
2023/07/01 02:33:42;;;;;;;4.80;2.90;;;;;;;;;;5035405;28;20546;-76
2023/07/01 02:36:08;;;;;;;6.40;3.00;;;;;;;;;;5037314;28;20537;-75
2023/07/01 02:38:36;;;;;;;4.83;2.77;;;;;;;;;;5037788;28;20458;-75
2023/07/01 02:41:03;;;;;;;11.77;3.17;;;;;;;;;;5040109;28;20904;-75
2023/07/01 02:43:29;;;;;;;4.27;3.13;;;;;;;;;;5039340;28;20458;-76
2023/07/01 02:45:55;;;;;;;4.20;2.63;;;;;;;;;;5039527;28;20558;-75
2023/07/01 02:48:22;;;;;;;5.20;2.90;;;;;;;;;;5036342;28;20482;-75
2023/07/01 02:50:48;;;;;;;3.50;2.53;;;;;;;;;;5036705;28;20532;-75
2023/07/01 02:53:17;;;;;;;4.70;3.33;;;;;;;;;;5039356;28;20464;-75
2023/07/01 02:55:46;;;;;;;3.80;3.00;;;;;;;;;;5038486;28;20521;-75
2023/07/01 02:58:12;;;;;;;4.53;3.10;;;;;;;;;;5040130;28;20494;-75
2023/07/01 03:00:38;;;;;;;7.83;2.70;;;;;;;;;;5037227;28;20509;-75
2023/07/01 03:03:06;;;;;;;3.70;3.10;;;;;;;;;;5039180;28;20546;-75
2023/07/01 03:05:33;;;;;;;4.43;2.90;;;;;;;;;;5039577;28;20453;-75
2023/07/01 03:07:59;;;;;;;3.20;2.83;;;;;;;;;;5034304;28;20489;-75
2023/07/01 03:10:26;;;;;;;4.57;2.83;;;;;;;;;;5034212;28;20540;-76
2023/07/01 03:12:54;;;;;;;11.03;3.13;;;;;;;;;;5038633;28;20492;-75
2023/07/01 03:15:20;;;;;;;6.00;3.30;;;;;;;;;;5034377;28;20510;-75
2023/07/01 03:17:47;;;;;;;5.50;3.30;;;;;;;;;;5040102;28;20502;-75
2023/07/01 03:20:22;;;;;;;7.50;3.50;;;;;;;;;;5036518;28;20487;-76
2023/07/01 03:22:49;;;;;;;4.00;2.80;;;;;;;;;;5037043;28;20457;-76
2023/07/01 03:25:15;;;;;;;5.50;2.70;;;;;;;;;;5038863;28;20456;-76
2023/07/01 03:27:42;;;;;;;4.80;2.60;;;;;;;;;;5039709;28;20476;-76
2023/07/01 03:30:13;;;;;;;3.77;2.73;;;;;;;;;;5040470;28;20469;-76
2023/07/01 03:32:40;;;;;;;10.07;3.20;;;;;;;;;;5035112;28;20484;-75
2023/07/01 03:35:06;;;;;;;6.20;2.93;;;;;;;;;;5037294;28;20514;-75
2023/07/01 03:37:33;;;;;;;10.90;3.00;;;;;;;;;;5036781;28;20461;-76
2023/07/01 03:39:59;;;;;;;3.40;3.00;;;;;;;;;;5041919;28;20608;-76
2023/07/01 03:42:26;;;;;;;8.53;3.77;;;;;;;;;;5037792;28;20458;-76
2023/07/01 03:44:52;;;;;;;4.00;2.70;;;;;;;;;;5039899;28;20545;-76
2023/07/01 03:47:20;;;;;;;6.10;2.87;;;;;;;;;;5039949;28;20517;-76
2023/07/01 03:49:46;;;;;;;4.00;2.67;;;;;;;;;;5036716;28;20492;-75
2023/07/01 03:52:12;;;;;;;4.80;2.67;;;;;;;;;;5037759;28;20685;-75
2023/07/01 03:54:39;;;;;;;3.73;2.17;;;;;;;;;;5034969;28;20509;-75
2023/07/01 03:57:05;;;;;;;4.10;2.40;;;;;;;;;;5034229;28;20482;-75
2023/07/01 03:59:32;;;;;;;3.30;2.47;;;;;;;;;;5035723;28;20573;-74
2023/07/01 04:01:59;;;;;;;3.67;2.23;;;;;;;;;;5036538;28;20492;-75
2023/07/01 04:04:37;;;;;;;4.00;2.50;;;;;;;;;;5035120;28;20468;-75
2023/07/01 04:07:05;;;;;;;3.33;2.43;;;;;;;;;;5030197;28;20539;-75
2023/07/01 04:09:31;;;;;;;5.93;2.80;;;;;;;;;;5034843;28;20462;-74
2023/07/01 04:11:58;;;;;;;4.67;2.77;;;;;;;;;;5038013;28;20485;-75
2023/07/01 04:14:24;;;;;;;4.07;2.13;;;;;;;;;;5040389;28;20453;-74
2023/07/01 04:16:50;;;;;;;2.90;1.90;;;;;;;;;;5037863;28;20518;-75
2023/07/01 04:19:17;;;;;;;2.93;2.10;;;;;;;;;;5038979;28;20486;-75
2023/07/01 04:21:45;;;;;;;6.00;2.60;;;;;;;;;;5037647;28;20985;-75
2023/07/01 04:24:11;;;;;;;3.67;2.37;;;;;;;;;;5035689;28;20915;-75
2023/07/01 04:26:37;;;;;;;6.20;2.40;;;;;;;;;;5036716;28;20485;-74
2023/07/01 04:29:04;;;;;;;3.17;2.00;;;;;;;;;;5035496;28;20479;-75
2023/07/01 04:31:30;;;;;;;4.93;1.93;;;;;;;;;;5040257;28;20470;-75
2023/07/01 04:33:57;;;;;;;4.67;2.47;;;;;;;;;;5037628;28;20465;-76
2023/07/01 04:36:23;;;;;;;6.27;2.60;;;;;;;;;;5037869;28;20481;-75
2023/07/01 04:38:51;;;;;;;4.13;2.60;;;;;;;;;;5039199;28;20525;-76
2023/07/01 04:41:17;;;;;;;4.67;2.30;;;;;;;;;;5030497;28;20516;-76
2023/07/01 04:43:43;;;;;;;2.87;2.53;;;;;;;;;;5038936;28;20480;-76
2023/07/01 04:46:10;;;;;;;5.53;3.57;;;;;;;;;;5033293;28;20520;-76
2023/07/01 04:48:36;;;;;;;3.90;2.10;;;;;;;;;;5026758;28;20465;-75
2023/07/01 04:51:03;;;;;;;2.97;2.20;;;;;;;;;;5029752;28;20496;-77
2023/07/01 04:53:29;;;;;;;3.90;2.30;;;;;;;;;;5039223;28;20526;-75
2023/07/01 04:55:57;;;;;;;4.27;2.50;;;;;;;;;;5037600;28;20557;-76
2023/07/01 04:58:23;;;;;;;4.13;2.80;;;;;;;;;;5038905;28;20484;-75
2023/07/01 05:00:50;;;;;;;4.60;2.30;;;;;;;;;;5038801;28;20527;-76
2023/07/01 05:03:16;;;;;;;4.00;3.17;;;;;;;;;;5042424;28;20525;-75
2023/07/01 05:05:43;;;;;;;3.73;2.40;;;;;;;;;;5038237;28;20446;-76
2023/07/01 05:08:09;;;;;;;3.10;2.03;;;;;;;;;;5038406;28;20541;-77
2023/07/01 05:10:36;;;;;;;4.10;2.20;;;;;;;;;;5042788;28;20553;-76
2023/07/01 05:13:03;;;;;;;4.00;2.30;;;;;;;;;;5036614;28;20531;-76
2023/07/01 05:15:30;;;;;;;9.13;2.70;;;;;;;;;;5036470;28;20596;-77
2023/07/01 05:17:56;;;;;;;3.03;2.13;;;;;;;;;;5034784;28;20455;-76
2023/07/01 05:20:23;;;;;;;2.33;1.83;;;;;;;;;;5041789;28;20525;-76
2023/07/01 05:22:49;;;;;;;2.80;2.27;;;;;;;;;;5040389;28;21089;-77
2023/07/01 05:25:15;;;;;;;3.23;2.40;;;;;;;;;;5036389;28;20553;-76
2023/07/01 05:27:42;;;;;;;3.23;2.07;;;;;;;;;;5040710;28;20452;-76
2023/07/01 05:30:10;;;;;;;3.83;2.10;;;;;;;;;;5035534;28;20477;-76
2023/07/01 05:32:37;;;;;;;4.43;2.00;;;;;;;;;;5033820;28;20481;-76
2023/07/01 05:35:03;;;;;;;3.33;2.53;;;;;;;;;;5037873;28;20460;-75
2023/07/01 05:37:29;;;;;;;4.50;2.50;;;;;;;;;;5040749;28;20437;-76
2023/07/01 05:39:56;;;;;;;4.67;2.27;;;;;;;;;;5042470;28;20508;-75
2023/07/01 05:42:22;;;;;;;3.10;2.20;;;;;;;;;;5042102;28;20465;-76
2023/07/01 05:44:49;;;;;;;4.27;2.60;;;;;;;;;;5043127;28;20529;-76
2023/07/01 05:47:18;;;;;;;3.67;2.07;;;;;;;;;;5042631;28;20469;-75
2023/07/01 05:49:44;;;;;;;3.70;2.10;;;;;;;;;;5037973;28;20457;-77
2023/07/01 05:52:11;;;;;;;4.20;2.50;;;;;;;;;;5042313;28;20517;-76
2023/07/01 05:54:37;;;;;;;9.30;2.50;;;;;;;;;;5040248;28;20487;-76
2023/07/01 05:57:04;;;;;;;4.50;2.00;;;;;;;;;;5030103;28;20489;-76
2023/07/01 05:59:30;;;;;;;2.93;2.30;;;;;;;;;;5036222;28;20517;-76
2023/07/01 06:01:57;;;;;;;3.00;1.87;;;;;;;;;;5039085;28;20544;-79
2023/07/01 06:04:24;;;;;;;3.87;2.30;;;;;;;;;;5040662;28;20489;-76
2023/07/01 06:06:51;;;;;;;4.93;2.00;;;;;;;;;;5037629;28;20491;-76
2023/07/01 06:09:17;;;;;;;4.70;2.47;;;;;;;;;;5042408;28;20494;-76
2023/07/01 06:11:43;;;;;;;3.03;1.73;;;;;;;;;;5042197;28;20485;-76
2023/07/01 06:14:10;;;;;;;3.17;2.17;;;;;;;;;;5040744;28;20518;-76
2023/07/01 06:16:37;;;;;;;3.97;2.23;;;;;;;;;;5038305;28;20489;-76
2023/07/01 06:19:03;;;;;;;5.20;2.40;;;;;;;;;;5035948;28;21000;-76
2023/07/01 06:21:31;;;;;;;3.67;2.27;;;;;;;;;;5040722;28;20504;-77
2023/07/01 06:23:57;;;;;;;4.37;2.50;;;;;;;;;;5038499;28;20590;-79
2023/07/01 06:26:24;;;;;;;32.87;3.57;;;;;;;;;;5033193;28;20508;-78
2023/07/01 06:28:50;;;;;;;4.70;2.20;;;;;;;;;;5039014;28;21203;-77
2023/07/01 06:31:17;;;;;;;4.80;2.60;;;;;;;;;;5040187;28;20477;-76
2023/07/01 06:33:45;;;;;;;3.90;2.40;;;;;;;;;;5041689;28;20489;-77
2023/07/01 06:36:12;;;;;;;4.23;2.40;;;;;;;;;;5041479;28;20473;-77
2023/07/01 06:38:40;;;;;;;4.43;2.63;;;;;;;;;;5033013;28;20537;-77
2023/07/01 06:41:07;;;;;;;3.07;2.53;;;;;;;;;;5040506;28;20583;-76
2023/07/01 06:43:36;;;;;;;4.20;2.60;;;;;;;;;;5038171;28;21029;-77
2023/07/01 06:46:03;;;;;;;3.97;2.37;;;;;;;;;;5038085;28;20492;-77
2023/07/01 06:48:29;;;;;;;3.97;2.23;;;;;;;;;;5041427;28;20469;-76
2023/07/01 06:50:56;;;;;;;7.10;2.50;;;;;;;;;;5041556;28;20450;-77
2023/07/01 06:53:22;;;;;;;5.60;2.20;;;;;;;;;;5038802;28;20473;-75
2023/07/01 06:55:50;;;;;;;1131.73;105.87;;;;;;;;;;5040934;28;20520;-76
2023/07/01 06:58:17;;;;;;;3.20;2.03;;;;;;;;;;5041013;28;20492;-76
2023/07/01 07:00:43;;;;;;;5.63;2.30;;;;;;;;;;5040717;28;20498;-77
2023/07/01 07:03:10;;;;;;;3.63;2.60;;;;;;;;;;5040671;28;20457;-77
2023/07/01 07:05:36;;;;;;;5.93;2.70;;;;;;;;;;5035200;28;20464;-77
2023/07/01 07:08:03;;;;;;;5.50;2.87;;;;;;;;;;5035314;28;20616;-77
2023/07/01 07:10:29;;;;;;;4.30;2.57;;;;;;;;;;5034995;28;20482;-77
2023/07/01 07:12:57;;;;;;;4.67;2.90;;;;;;;;;;5038379;28;20481;-76
2023/07/01 07:15:23;;;;;;;5.90;2.30;;;;;;;;;;5035044;28;20537;-77
2023/07/01 07:17:50;;;;;;;3.63;2.53;;;;;;;;;;5040015;28;20525;-76
2023/07/01 07:20:17;;;;;;;4.80;2.80;;;;;;;;;;5037677;28;20485;-76
2023/07/01 07:22:44;;;;;;;5.00;2.60;;;;;;;;;;5038182;28;20516;-78
2023/07/01 07:25:15;;;;;;;4.20;2.50;;;;;;;;;;5039908;28;20955;-74
2023/07/01 07:27:41;;;;;;;4.57;2.83;;;;;;;;;;5038683;28;20445;-75
2023/07/01 07:30:10;;;;;;;6.07;3.10;;;;;;;;;;5030189;28;20504;-75
2023/07/01 07:32:36;;;;;;;3.67;2.60;;;;;;;;;;5032015;28;20511;-74
2023/07/01 07:35:03;;;;;;;5.00;2.43;;;;;;;;;;5033396;28;20988;-74
2023/07/01 07:37:29;;;;;;;2.60;2.10;;;;;;;;;;5030818;28;20478;-74
2023/07/01 07:39:58;;;;;;;3.57;2.43;;;;;;;;;;5034308;28;20950;-75
2023/07/01 07:42:25;;;;;;;5.53;2.80;;;;;;;;;;5035970;28;20500;-75
2023/07/01 07:44:51;;;;;;;9.67;2.97;;;;;;;;;;5037062;28;20521;-75
2023/07/01 07:47:19;;;;;;;7.60;2.57;;;;;;;;;;5038682;28;20524;-74
2023/07/01 07:49:46;;;;;;;4.40;2.67;;;;;;;;;;5037915;28;20457;-75
2023/07/01 07:52:12;;;;;;;4.23;3.03;;;;;;;;;;5034842;28;20558;-77
2023/07/01 07:54:39;;;;;;;4.87;2.53;;;;;;;;;;5026145;28;20478;-77
2023/07/01 07:57:05;;;;;;;4.60;2.70;;;;;;;;;;5031786;28;20526;-78
2023/07/01 07:59:32;;;;;;;4.97;2.60;;;;;;;;;;5028613;28;20476;-79
2023/07/01 08:01:59;;;;;;;3.70;2.20;;;;;;;;;;5034775;28;20477;-78
2023/07/01 08:04:27;;;;;;;5.67;3.13;;;;;;;;;;5038209;28;20918;-78
2023/07/01 08:06:54;;;;;;;4.60;2.70;;;;;;;;;;5034661;28;20593;-79
2023/07/01 08:09:20;;;;;;;6.33;2.40;;;;;;;;;;5034688;28;20461;-76
2023/07/01 08:11:47;;;;;;;5.23;2.93;;;;;;;;;;5033150;28;20504;-77
2023/07/01 08:14:13;;;;;;;5.87;2.60;;;;;;;;;;5038283;28;20852;-79
2023/07/01 08:16:40;;;;;;;7.33;2.73;;;;;;;;;;5039648;28;20531;-78
2023/07/01 08:19:06;;;;;;;8.40;2.93;;;;;;;;;;5037266;28;20518;-76
2023/07/01 08:21:35;;;;;;;3.70;2.27;;;;;;;;;;5033168;28;20497;-77
2023/07/01 08:24:02;;;;;;;3.87;2.47;;;;;;;;;;5032321;28;20521;-78
2023/07/01 08:26:29;;;;;;;3.87;3.10;;;;;;;;;;5036999;28;20458;-78
2023/07/01 08:28:55;;;;;;;5.60;3.00;;;;;;;;;;5029720;28;20509;-77
2023/07/01 08:31:21;;;;;;;5.10;2.70;;;;;;;;;;5037374;28;20922;-77
2023/07/01 08:33:48;;;;;;;9.70;2.80;;;;;;;;;;5031978;28;20507;-77
2023/07/01 08:36:14;;;;;;;4.97;3.33;;;;;;;;;;5042684;28;20533;-77
2023/07/01 08:38:42;;;;;;;3.43;3.03;;;;;;;;;;5031534;28;20918;-77
2023/07/01 08:41:10;;;;;;;5.63;2.90;;;;;;;;;;5038921;28;20501;-77
2023/07/01 08:43:39;;;;;;;6.30;3.17;;;;;;;;;;5041039;28;20518;-77
2023/07/01 08:46:09;;;;;;;4.00;2.70;;;;;;;;;;5041372;28;20527;-78
2023/07/01 08:48:35;;;;;;;3.60;2.70;;;;;;;;;;5037660;28;20535;-77
2023/07/01 08:51:03;;;;;;;5.03;3.07;;;;;;;;;;5038572;28;20549;-77
2023/07/01 08:53:29;;;;;;;4.03;2.80;;;;;;;;;;5039164;28;20505;-77
2023/07/01 08:55:58;;;;;;;3.80;2.80;;;;;;;;;;5037010;28;20479;-77
2023/07/01 08:58:24;;;;;;;3.53;3.20;;;;;;;;;;5038399;28;20486;-76
2023/07/01 09:00:51;;;;;;;4.60;3.03;;;;;;;;;;5042512;28;20490;-77
2023/07/01 09:03:17;;;;;;;8.80;3.20;;;;;;;;;;5036569;28;20917;-77
2023/07/01 09:05:44;;;;;;;3.67;3.37;;;;;;;;;;5039154;28;20549;-74
2023/07/01 09:08:10;;;;;;;5.30;2.90;;;;;;;;;;5039357;28;20918;-77
2023/07/01 09:10:37;;;;;;;8.27;3.50;;;;;;;;;;5035982;28;20465;-77
2023/07/01 09:13:11;;;;;;;5.87;3.37;;;;;;;;;;5036164;28;20458;-78
2023/07/01 09:15:45;;;;;;;4.23;2.73;;;;;;;;;;5036574;28;20443;-77
2023/07/01 09:18:21;;;;;;;5.87;3.40;;;;;;;;;;5038105;28;20473;-78
2023/07/01 09:20:48;;;;;;;4.37;3.00;;;;;;;;;;5037961;28;20939;-78
2023/07/01 09:23:25;;;;;;;4.30;3.20;;;;;;;;;;5036605;28;20462;-79
2023/07/01 09:25:51;;;;;;;4.93;3.53;;;;;;;;;;5035238;28;20557;-77
2023/07/01 09:28:29;;;;;;;4.80;3.77;;;;;;;;;;5042406;28;20733;-77
2023/07/01 09:30:59;;;;;;;5.80;3.63;;;;;;;;;;5042262;28;20563;-77
2023/07/01 09:33:25;;;;;;;5.77;3.17;;;;;;;;;;5033385;28;20513;-78
2023/07/01 09:35:57;;;;;;;4.93;3.10;;;;;;;;;;5042589;28;20460;-78
2023/07/01 09:38:23;;;;;;;5.63;3.30;;;;;;;;;;5037538;28;20966;-79
2023/07/01 09:40:49;;;;;;;4.20;3.33;;;;;;;;;;5040513;28;20521;-77
2023/07/01 09:43:18;;;;;;;7.90;3.83;;;;;;;;;;5041053;28;20489;-78
2023/07/01 09:45:56;;;;;;;3.80;3.03;;;;;;;;;;5041810;28;20524;-78
2023/07/01 09:48:23;;;;;;;5.67;3.70;;;;;;;;;;5039321;28;21059;-79
2023/07/01 09:50:50;;;;;;;7.00;3.50;;;;;;;;;;5042240;28;20477;-78
2023/07/01 09:53:20;;;;;;;3.43;2.73;;;;;;;;;;5041479;28;20489;-78
2023/07/01 09:55:47;;;;;;;8.80;3.40;;;;;;;;;;5037332;28;20797;-76
2023/07/01 09:58:14;;;;;;;4.83;3.67;;;;;;;;;;5042413;28;20450;-76
2023/07/01 10:00:40;;;;;;;6.60;3.43;;;;;;;;;;5041594;28;20461;-78
2023/07/01 10:03:08;;;;;;;5.03;2.87;;;;;;;;;;5041373;28;21285;-80
2023/07/01 10:05:35;;;;;;;6.17;3.90;;;;;;;;;;5041718;28;20446;-80
2023/07/01 10:08:02;;;;;;;4.47;3.00;;;;;;;;;;5041548;28;20489;-79
2023/07/01 10:10:29;;;;;;;9.10;4.43;;;;;;;;;;5040912;28;20510;-79
2023/07/01 10:12:57;;;;;;;4.13;3.30;;;;;;;;;;5040119;28;20899;-79
2023/07/01 10:15:25;;;;;;;4.80;3.37;;;;;;;;;;5041900;28;20465;-79
2023/07/01 10:17:52;;;;;;;4.40;3.33;;;;;;;;;;5033864;28;20505;-81
2023/07/01 10:20:27;;;;;;;6.80;3.40;;;;;;;;;;5035150;28;20458;-82
2023/07/01 10:22:54;;;;;;;5.23;3.23;;;;;;;;;;5039717;28;20922;-81
2023/07/01 10:25:29;;;;;;;7.87;3.57;;;;;;;;;;5039491;28;20453;-81
2023/07/01 10:28:13;;;;;;;4.53;3.47;;;;;;;;;;5040641;28;20548;-82
2023/07/01 10:30:58;;;;;;;4.80;3.80;;;;;;;;;;5039135;28;20480;-80
2023/07/01 10:33:42;;;;;;;3.93;3.47;;;;;;;;;;5039655;28;20473;-80
2023/07/01 10:36:10;;;;;;;3.70;3.30;;;;;;;;;;5040308;28;20469;-81
2023/07/01 10:38:37;;;;;;;4.73;3.70;;;;;;;;;;5039889;28;20488;-80
2023/07/01 10:41:04;;;;;;;6.00;3.93;;;;;;;;;;5041136;28;20477;-80
2023/07/01 10:43:32;;;;;;;3.90;3.20;;;;;;;;;;5034830;28;20480;-82
2023/07/01 10:46:12;;;;;;;4.47;3.47;;;;;;;;;;5036787;28;20521;-82
2023/07/01 10:48:39;;;;;;;7.93;3.67;;;;;;;;;;5039213;28;20530;-82
2023/07/01 10:51:07;;;;;;;5.37;3.53;;;;;;;;;;5040129;28;20457;-81
2023/07/01 10:53:48;;;;;;;6.23;3.70;;;;;;;;;;5035060;28;20520;-82
2023/07/01 10:56:16;;;;;;;8.23;3.27;;;;;;;;;;5035396;28;20463;-82
2023/07/01 10:58:43;;;;;;;5.23;3.30;;;;;;;;;;5039283;28;20486;-82
2023/07/01 11:01:29;;;;;;;4.00;3.00;;;;;;;;;;5039290;28;20527;-80
2023/07/01 11:03:56;;;;;;;10.50;3.67;;;;;;;;;;5038641;28;20545;-83
2023/07/01 11:06:23;;;;;;;7.10;2.93;;;;;;;;;;5038319;28;20466;-84
2023/07/01 11:08:50;;;;;;;5.10;2.90;;;;;;;;;;5038622;28;20974;-86
2023/07/01 11:11:25;;;;;;;4.17;3.10;;;;;;;;;;5039274;28;20505;-87
2023/07/01 11:13:59;;;;;;;4.80;3.30;;;;;;;;;;5030218;28;20902;-85
2023/07/01 11:16:25;;;;;;;6.70;3.40;;;;;;;;;;5038801;28;20492;-84
2023/07/01 11:18:52;;;;;;;7.33;2.87;;;;;;;;;;5038661;28;20702;-84
2023/07/01 11:21:19;;;;;;;2.40;2.20;;;;;;;;;;5039388;28;20490;-85
2023/07/01 11:23:51;;;;;;;3.80;2.80;;;;;;;;;;5038234;28;20462;-84
2023/07/01 11:26:19;;;;;;;3.70;2.63;;;;;;;;;;5038890;28;20497;-84
2023/07/01 11:28:46;;;;;;;3.67;2.30;;;;;;;;;;5039378;28;20469;-85
2023/07/01 11:31:15;;;;;;;2.97;2.60;;;;;;;;;;5037928;28;20470;-81
2023/07/01 11:33:45;;;;;;;4.23;2.70;;;;;;;;;;5032104;28;20504;-81
2023/07/01 11:36:13;;;;;;;5.80;2.53;;;;;;;;;;5039871;28;20458;-83
2023/07/01 11:38:39;;;;;;;53.83;4.80;;;;;;;;;;5037599;28;20485;-81
2023/07/01 11:41:06;;;;;;;3.30;2.57;;;;;;;;;;5038114;28;20559;-82
2023/07/01 11:43:33;;;;;;;5.00;3.23;;;;;;;;;;5039320;28;20585;-82
2023/07/01 11:46:01;;;;;;;5.50;3.27;;;;;;;;;;5039703;28;20525;-83
2023/07/01 11:48:31;;;;;;;3.30;2.80;;;;;;;;;;5038809;28;20461;-82
2023/07/01 11:50:57;;;;;;;5.03;3.07;;;;;;;;;;5039188;28;20481;-83
2023/07/01 11:53:23;;;;;;;3.63;2.97;;;;;;;;;;5038260;28;20553;-83
2023/07/01 11:55:50;;;;;;;3.37;3.07;;;;;;;;;;5033217;28;20481;-83
2023/07/01 11:58:29;;;;;;;3.73;3.17;;;;;;;;;;5036813;28;20461;-82
2023/07/01 12:00:56;;;;;;;3.93;3.63;;;;;;;;;;5038779;28;20481;-84
2023/07/01 12:03:24;;;;;;;4.27;3.97;;;;;;;;;;5038174;28;20485;-83
2023/07/01 12:05:50;;;;;;;5.43;4.20;;;;;;;;;;5036578;28;20898;-83
2023/07/01 12:08:17;;;;;;;4.67;4.27;;;;;;;;;;5040014;28;20561;-83
2023/07/01 12:10:43;;;;;;;5.00;3.70;;;;;;;;;;5043707;28;20489;-84
2023/07/01 12:13:27;;;;;;;5.03;4.63;;;;;;;;;;5038509;28;20919;-82
2023/07/01 12:15:54;;;;;;;5.83;4.27;;;;;;;;;;5039328;28;20469;-82
2023/07/01 12:18:21;;;;;;;4.30;3.90;;;;;;;;;;5041039;28;20472;-79
2023/07/01 12:20:49;;;;;;;4.83;4.43;;;;;;;;;;5041876;28;20468;-77
2023/07/01 12:23:15;;;;;;;4.70;4.30;;;;;;;;;;5042624;28;20505;-78
2023/07/01 12:25:42;;;;;;;6.30;5.10;;;;;;;;;;5043598;28;20481;-81
2023/07/01 12:28:08;;;;;;;6.17;4.80;;;;;;;;;;5043612;28;20505;-80
2023/07/01 12:30:35;;;;;;;5.67;5.20;;;;;;;;;;5043066;28;20478;-79
2023/07/01 12:33:01;;;;;;;4.53;4.13;;;;;;;;;;5042672;28;20478;-79
2023/07/01 12:35:27;;;;;;;5.63;3.97;;;;;;;;;;5043459;28;20528;-80
2023/07/01 12:37:57;;;;;;;4.40;4.10;;;;;;;;;;5037122;28;20843;-80
2023/07/01 12:40:26;;;;;;;5.00;4.00;;;;;;;;;;5039165;28;20529;-80
2023/07/01 12:42:52;;;;;;;7.87;4.53;;;;;;;;;;5033913;28;20503;-80
2023/07/01 12:45:19;;;;;;;6.43;4.40;;;;;;;;;;5040317;28;20936;-82
2023/07/01 12:47:45;;;;;;;4.53;4.13;;;;;;;;;;5041954;28;20912;-81
2023/07/01 12:50:12;;;;;;;4.73;4.33;;;;;;;;;;5041130;28;20456;-83
2023/07/01 12:52:39;;;;;;;4.30;3.90;;;;;;;;;;5041026;28;20489;-82
2023/07/01 12:55:10;;;;;;;4.50;4.13;;;;;;;;;;5039917;28;20460;-81
2023/07/01 12:57:36;;;;;;;4.10;3.80;;;;;;;;;;5036487;28;20492;-81
2023/07/01 13:00:05;;;;;;;4.07;3.70;;;;;;;;;;5042889;28;20452;-80
2023/07/01 13:02:31;;;;;;;4.50;4.10;;;;;;;;;;5041887;28;21103;-80
2023/07/01 13:05:00;;;;;;;4.33;3.93;;;;;;;;;;5033320;28;20514;-80
2023/07/01 13:07:27;;;;;;;7.23;4.50;;;;;;;;;;5045399;28;20496;-82
2023/07/01 13:09:54;;;;;;;4.90;4.50;;;;;;;;;;5042979;28;20450;-82
2023/07/01 13:12:24;;;;;;;5.73;5.10;;;;;;;;;;5045053;28;20984;-82
2023/07/01 13:14:51;;;;;;;5.73;5.23;;;;;;;;;;5042272;28;20511;-81
2023/07/01 13:17:18;;;;;;;4.97;4.57;;;;;;;;;;5042552;28;20457;-80
2023/07/01 13:19:44;;;;;;;4.90;4.50;;;;;;;;;;5038332;28;20450;-81
2023/07/01 13:22:13;;;;;;;5.70;5.03;;;;;;;;;;5031605;28;20557;-80
2023/07/01 13:24:41;;;;;;;5.73;5.10;;;;;;;;;;5040050;28;20489;-79
2023/07/01 13:27:10;;;;;;;5.50;4.67;;;;;;;;;;5032441;28;20530;-78
2023/07/01 13:29:38;;;;;;;5.03;4.70;;;;;;;;;;5041302;28;20449;-77
2023/07/01 13:32:05;;;;;;;5.03;4.63;;;;;;;;;;5040351;28;20478;-76
2023/07/01 13:34:36;;;;;;;4.43;4.03;;;;;;;;;;5038468;28;20541;-76
2023/07/01 13:37:03;;;;;;;355.20;22.73;;;;;;;;;;5030092;28;20454;-78
2023/07/01 13:39:37;;;;;;;3.90;3.50;;;;;;;;;;5041180;28;20478;-78
2023/07/01 13:42:04;;;;;;;5.33;3.93;;;;;;;;;;5042529;28;20521;-77
2023/07/01 13:44:30;;;;;;;4.40;4.00;;;;;;;;;;5040881;28;20546;-78
2023/07/01 13:46:58;;;;;;;2.23;1.83;;;;;;;;;;5038300;28;20900;-77
2023/07/01 13:49:25;;;;;;;4.53;4.23;;;;;;;;;;5041924;28;20477;-78
2023/07/01 13:51:53;;;;;;;4.40;4.10;;;;;;;;;;5039769;28;20526;-77
2023/07/01 13:54:23;;;;;;;4.70;4.40;;;;;;;;;;5034876;28;20517;-77
2023/07/01 13:56:49;;;;;;;4.10;3.70;;;;;;;;;;5037967;28;20469;-77
2023/07/01 13:59:17;;;;;;;4.40;4.03;;;;;;;;;;5034771;28;20465;-77
2023/07/01 14:01:56;;;;;;;4.17;3.77;;;;;;;;;;5040226;28;20496;-77
2023/07/01 14:04:24;;;;;;;5.90;3.87;;;;;;;;;;5040304;28;20457;-76
2023/07/01 14:06:51;;;;;;;4.00;3.60;;;;;;;;;;5040007;28;20509;-78
2023/07/01 14:09:21;;;;;;;3.53;3.27;;;;;;;;;;5042186;28;20500;-78
2023/07/01 14:11:47;;;;;;;4.60;3.80;;;;;;;;;;5041366;28;20496;-78
2023/07/01 14:14:19;;;;;;;5.20;3.77;;;;;;;;;;5041198;28;20472;-77
2023/07/01 14:16:46;;;;;;;74.33;5.80;;;;;;;;;;5040277;28;20453;-76
2023/07/01 14:19:14;;;;;;;5.20;3.67;;;;;;;;;;5036627;28;20654;-76
2023/07/01 14:21:42;;;;;;;5.00;3.30;;;;;;;;;;5032763;28;20458;-76
2023/07/01 14:24:13;;;;;;;4.50;2.80;;;;;;;;;;5027844;28;20490;-77
2023/07/01 14:26:42;;;;;;;3.97;3.67;;;;;;;;;;5040091;28;20466;-78
2023/07/01 14:29:08;;;;;;;5.00;4.60;;;;;;;;;;5040807;28;20469;-77
2023/07/01 14:31:35;;;;;;;4.97;4.57;;;;;;;;;;5031120;28;20447;-76
2023/07/01 14:34:03;;;;;;;4.20;3.43;;;;;;;;;;5036420;28;20480;-76
2023/07/01 14:36:31;;;;;;;6.57;3.93;;;;;;;;;;5040135;28;20449;-76
2023/07/01 14:39:00;;;;;;;2.83;2.47;;;;;;;;;;5041399;28;20485;-78
2023/07/01 14:41:27;;;;;;;3.13;2.23;;;;;;;;;;5040401;28;20489;-78
2023/07/01 14:43:55;;;;;;;3.07;2.23;;;;;;;;;;5039542;28;20481;-80
2023/07/01 14:46:21;;;;;;;2.40;1.80;;;;;;;;;;5039308;28;20490;-79